sensor_id;sensor_type;location;lat;lon;timestamp;P1;durP1;ratioP1;P2;durP2;ratioP2
61785;SDS011;47692;53.714;11.372;2022-11-10T00:00:39;9.70;;;3.03;;
61785;SDS011;47692;53.714;11.372;2022-11-10T00:03:05;6.63;;;2.70;;
61785;SDS011;47692;53.714;11.372;2022-11-10T00:05:31;9.63;;;2.58;;
61785;SDS011;47692;53.714;11.372;2022-11-10T00:08:01;6.72;;;3.15;;
61785;SDS011;47692;53.714;11.372;2022-11-10T00:10:28;7.10;;;3.00;;
61785;SDS011;47692;53.714;11.372;2022-11-10T00:12:53;3.97;;;2.67;;
61785;SDS011;47692;53.714;11.372;2022-11-10T00:15:19;7.90;;;2.90;;
61785;SDS011;47692;53.714;11.372;2022-11-10T00:18:03;8.63;;;3.00;;
61785;SDS011;47692;53.714;11.372;2022-11-10T00:20:29;7.80;;;3.13;;
61785;SDS011;47692;53.714;11.372;2022-11-10T00:22:54;6.70;;;2.85;;
61785;SDS011;47692;53.714;11.372;2022-11-10T00:25:20;7.32;;;3.15;;
61785;SDS011;47692;53.714;11.372;2022-11-10T00:27:47;6.05;;;3.10;;
61785;SDS011;47692;53.714;11.372;2022-11-10T00:30:13;6.15;;;2.80;;
61785;SDS011;47692;53.714;11.372;2022-11-10T00:32:38;7.03;;;2.83;;
61785;SDS011;47692;53.714;11.372;2022-11-10T00:35:04;6.60;;;2.88;;
61785;SDS011;47692;53.714;11.372;2022-11-10T00:37:29;5.25;;;3.13;;
61785;SDS011;47692;53.714;11.372;2022-11-10T00:39:54;7.78;;;2.97;;
61785;SDS011;47692;53.714;11.372;2022-11-10T00:42:20;7.20;;;2.17;;
61785;SDS011;47692;53.714;11.372;2022-11-10T00:44:45;5.70;;;2.38;;
61785;SDS011;47692;53.714;11.372;2022-11-10T00:47:11;3.58;;;2.63;;
61785;SDS011;47692;53.714;11.372;2022-11-10T00:49:36;5.85;;;2.80;;
61785;SDS011;47692;53.714;11.372;2022-11-10T00:52:02;6.55;;;2.85;;
61785;SDS011;47692;53.714;11.372;2022-11-10T00:54:28;5.68;;;2.45;;
61785;SDS011;47692;53.714;11.372;2022-11-10T00:56:53;6.97;;;2.70;;
61785;SDS011;47692;53.714;11.372;2022-11-10T00:59:18;5.55;;;3.00;;
61785;SDS011;47692;53.714;11.372;2022-11-10T01:01:44;7.82;;;3.10;;
61785;SDS011;47692;53.714;11.372;2022-11-10T01:04:09;7.45;;;4.85;;
61785;SDS011;47692;53.714;11.372;2022-11-10T01:06:34;8.40;;;3.15;;
61785;SDS011;47692;53.714;11.372;2022-11-10T01:09:00;7.07;;;3.22;;
61785;SDS011;47692;53.714;11.372;2022-11-10T01:11:26;7.25;;;2.53;;
61785;SDS011;47692;53.714;11.372;2022-11-10T01:13:52;8.25;;;3.47;;
61785;SDS011;47692;53.714;11.372;2022-11-10T01:16:29;8.60;;;3.38;;
61785;SDS011;47692;53.714;11.372;2022-11-10T01:18:56;5.85;;;3.30;;
61785;SDS011;47692;53.714;11.372;2022-11-10T01:21:23;6.50;;;3.58;;
61785;SDS011;47692;53.714;11.372;2022-11-10T01:23:49;8.80;;;3.38;;
61785;SDS011;47692;53.714;11.372;2022-11-10T01:26:16;6.72;;;3.10;;
61785;SDS011;47692;53.714;11.372;2022-11-10T01:28:42;8.65;;;3.38;;
61785;SDS011;47692;53.714;11.372;2022-11-10T01:31:09;6.15;;;3.40;;
61785;SDS011;47692;53.714;11.372;2022-11-10T01:33:36;7.30;;;3.85;;
61785;SDS011;47692;53.714;11.372;2022-11-10T01:36:03;10.40;;;3.75;;
61785;SDS011;47692;53.714;11.372;2022-11-10T01:38:30;6.75;;;3.72;;
61785;SDS011;47692;53.714;11.372;2022-11-10T01:40:57;9.25;;;3.72;;
61785;SDS011;47692;53.714;11.372;2022-11-10T01:43:23;6.57;;;4.00;;
61785;SDS011;47692;53.714;11.372;2022-11-10T01:45:53;9.15;;;4.32;;
61785;SDS011;47692;53.714;11.372;2022-11-10T01:51:02;10.65;;;3.50;;
61785;SDS011;47692;53.714;11.372;2022-11-10T01:53:33;5.80;;;3.42;;
61785;SDS011;47692;53.714;11.372;2022-11-10T01:56:02;9.32;;;3.92;;
61785;SDS011;47692;53.714;11.372;2022-11-10T01:58:32;8.68;;;3.65;;
61785;SDS011;47692;53.714;11.372;2022-11-10T02:01:04;10.52;;;4.00;;
61785;SDS011;47692;53.714;11.372;2022-11-10T02:03:38;11.10;;;3.67;;
61785;SDS011;47692;53.714;11.372;2022-11-10T02:06:10;8.68;;;3.72;;
61785;SDS011;47692;53.714;11.372;2022-11-10T02:08:37;9.88;;;4.78;;
61785;SDS011;47692;53.714;11.372;2022-11-10T02:11:05;7.95;;;4.13;;
61785;SDS011;47692;53.714;11.372;2022-11-10T02:13:30;9.18;;;4.55;;
61785;SDS011;47692;53.714;11.372;2022-11-10T02:15:55;8.10;;;4.13;;
61785;SDS011;47692;53.714;11.372;2022-11-10T02:18:21;11.30;;;4.53;;
61785;SDS011;47692;53.714;11.372;2022-11-10T02:20:46;12.30;;;5.35;;
61785;SDS011;47692;53.714;11.372;2022-11-10T02:23:13;10.80;;;4.78;;
61785;SDS011;47692;53.714;11.372;2022-11-10T02:25:59;9.43;;;4.60;;
61785;SDS011;47692;53.714;11.372;2022-11-10T02:28:26;10.95;;;5.25;;
61785;SDS011;47692;53.714;11.372;2022-11-10T02:30:52;10.82;;;4.78;;
61785;SDS011;47692;53.714;11.372;2022-11-10T02:33:18;10.75;;;5.00;;
61785;SDS011;47692;53.714;11.372;2022-11-10T02:35:44;12.60;;;5.57;;
61785;SDS011;47692;53.714;11.372;2022-11-10T02:38:10;7.95;;;5.03;;
61785;SDS011;47692;53.714;11.372;2022-11-10T02:40:36;13.80;;;5.28;;
61785;SDS011;47692;53.714;11.372;2022-11-10T02:43:02;8.35;;;5.10;;
61785;SDS011;47692;53.714;11.372;2022-11-10T02:45:30;9.48;;;5.38;;
61785;SDS011;47692;53.714;11.372;2022-11-10T02:47:56;10.35;;;5.85;;
61785;SDS011;47692;53.714;11.372;2022-11-10T02:50:21;21.75;;;6.97;;
61785;SDS011;47692;53.714;11.372;2022-11-10T02:52:46;14.07;;;6.13;;
61785;SDS011;47692;53.714;11.372;2022-11-10T02:55:12;13.40;;;6.28;;
61785;SDS011;47692;53.714;11.372;2022-11-10T02:57:37;11.85;;;6.43;;
61785;SDS011;47692;53.714;11.372;2022-11-10T03:00:03;8.95;;;6.22;;
61785;SDS011;47692;53.714;11.372;2022-11-10T03:02:30;9.18;;;5.80;;
61785;SDS011;47692;53.714;11.372;2022-11-10T03:04:55;12.27;;;5.15;;
61785;SDS011;47692;53.714;11.372;2022-11-10T03:07:20;12.55;;;6.13;;
61785;SDS011;47692;53.714;11.372;2022-11-10T03:09:46;14.05;;;6.07;;
61785;SDS011;47692;53.714;11.372;2022-11-10T03:12:11;10.50;;;5.82;;
61785;SDS011;47692;53.714;11.372;2022-11-10T03:14:36;10.80;;;5.75;;
61785;SDS011;47692;53.714;11.372;2022-11-10T03:17:02;13.43;;;5.38;;
61785;SDS011;47692;53.714;11.372;2022-11-10T03:19:27;11.50;;;5.57;;
61785;SDS011;47692;53.714;11.372;2022-11-10T03:21:52;8.82;;;5.03;;
61785;SDS011;47692;53.714;11.372;2022-11-10T03:24:18;11.13;;;5.22;;
61785;SDS011;47692;53.714;11.372;2022-11-10T03:26:43;9.20;;;5.38;;
61785;SDS011;47692;53.714;11.372;2022-11-10T03:29:09;12.13;;;4.97;;
61785;SDS011;47692;53.714;11.372;2022-11-10T03:31:34;8.98;;;4.70;;
61785;SDS011;47692;53.714;11.372;2022-11-10T03:33:59;11.73;;;5.07;;
61785;SDS011;47692;53.714;11.372;2022-11-10T03:36:25;7.70;;;4.30;;
61785;SDS011;47692;53.714;11.372;2022-11-10T03:38:50;10.88;;;4.90;;
61785;SDS011;47692;53.714;11.372;2022-11-10T03:41:15;11.98;;;5.72;;
61785;SDS011;47692;53.714;11.372;2022-11-10T03:43:41;10.85;;;4.63;;
61785;SDS011;47692;53.714;11.372;2022-11-10T03:46:06;12.38;;;5.15;;
61785;SDS011;47692;53.714;11.372;2022-11-10T03:48:32;10.80;;;4.65;;
61785;SDS011;47692;53.714;11.372;2022-11-10T03:50:57;11.38;;;4.75;;
61785;SDS011;47692;53.714;11.372;2022-11-10T03:53:22;12.50;;;4.43;;
61785;SDS011;47692;53.714;11.372;2022-11-10T03:55:48;11.68;;;4.82;;
61785;SDS011;47692;53.714;11.372;2022-11-10T03:58:13;12.05;;;4.55;;
61785;SDS011;47692;53.714;11.372;2022-11-10T04:00:38;11.00;;;4.45;;
61785;SDS011;47692;53.714;11.372;2022-11-10T04:03:04;8.45;;;4.35;;
61785;SDS011;47692;53.714;11.372;2022-11-10T04:05:29;10.80;;;4.78;;
61785;SDS011;47692;53.714;11.372;2022-11-10T04:08:14;15.43;;;5.35;;
61785;SDS011;47692;53.714;11.372;2022-11-10T04:10:59;12.35;;;4.80;;
61785;SDS011;47692;53.714;11.372;2022-11-10T04:13:25;17.40;;;5.05;;
61785;SDS011;47692;53.714;11.372;2022-11-10T04:16:10;11.02;;;5.10;;
61785;SDS011;47692;53.714;11.372;2022-11-10T04:18:35;11.23;;;4.90;;
61785;SDS011;47692;53.714;11.372;2022-11-10T04:21:01;9.93;;;4.85;;
61785;SDS011;47692;53.714;11.372;2022-11-10T04:23:27;11.70;;;4.78;;
61785;SDS011;47692;53.714;11.372;2022-11-10T04:25:59;11.27;;;5.10;;
61785;SDS011;47692;53.714;11.372;2022-11-10T04:28:44;9.73;;;4.93;;
61785;SDS011;47692;53.714;11.372;2022-11-10T04:31:11;12.10;;;5.22;;
61785;SDS011;47692;53.714;11.372;2022-11-10T04:33:37;12.35;;;4.45;;
61785;SDS011;47692;53.714;11.372;2022-11-10T04:36:03;10.75;;;4.80;;
61785;SDS011;47692;53.714;11.372;2022-11-10T04:38:29;15.82;;;6.00;;
61785;SDS011;47692;53.714;11.372;2022-11-10T04:40:54;12.65;;;5.15;;
61785;SDS011;47692;53.714;11.372;2022-11-10T04:43:20;10.38;;;5.05;;
61785;SDS011;47692;53.714;11.372;2022-11-10T04:45:45;9.88;;;5.45;;
61785;SDS011;47692;53.714;11.372;2022-11-10T04:48:10;15.13;;;5.93;;
61785;SDS011;47692;53.714;11.372;2022-11-10T04:50:36;13.25;;;5.63;;
61785;SDS011;47692;53.714;11.372;2022-11-10T04:53:01;19.58;;;5.75;;
61785;SDS011;47692;53.714;11.372;2022-11-10T04:55:26;17.70;;;5.88;;
61785;SDS011;47692;53.714;11.372;2022-11-10T04:57:52;10.95;;;4.97;;
61785;SDS011;47692;53.714;11.372;2022-11-10T05:00:17;11.07;;;5.20;;
61785;SDS011;47692;53.714;11.372;2022-11-10T05:02:43;12.38;;;5.50;;
61785;SDS011;47692;53.714;11.372;2022-11-10T05:05:08;17.10;;;6.25;;
61785;SDS011;47692;53.714;11.372;2022-11-10T05:07:33;16.55;;;6.07;;
61785;SDS011;47692;53.714;11.372;2022-11-10T05:09:59;13.30;;;5.68;;
61785;SDS011;47692;53.714;11.372;2022-11-10T05:12:24;15.95;;;6.72;;
61785;SDS011;47692;53.714;11.372;2022-11-10T05:14:49;16.23;;;5.78;;
61785;SDS011;47692;53.714;11.372;2022-11-10T05:17:15;15.27;;;6.50;;
61785;SDS011;47692;53.714;11.372;2022-11-10T05:19:40;13.32;;;6.05;;
61785;SDS011;47692;53.714;11.372;2022-11-10T05:22:06;17.90;;;6.68;;
61785;SDS011;47692;53.714;11.372;2022-11-10T05:24:31;15.25;;;7.15;;
61785;SDS011;47692;53.714;11.372;2022-11-10T05:26:57;18.33;;;7.18;;
61785;SDS011;47692;53.714;11.372;2022-11-10T05:29:22;12.10;;;6.05;;
61785;SDS011;47692;53.714;11.372;2022-11-10T05:31:47;17.98;;;6.43;;
61785;SDS011;47692;53.714;11.372;2022-11-10T05:34:13;17.98;;;7.20;;
61785;SDS011;47692;53.714;11.372;2022-11-10T05:36:38;15.27;;;7.38;;
61785;SDS011;47692;53.714;11.372;2022-11-10T05:39:04;13.75;;;6.43;;
61785;SDS011;47692;53.714;11.372;2022-11-10T05:41:29;15.55;;;6.82;;
61785;SDS011;47692;53.714;11.372;2022-11-10T05:43:55;14.20;;;7.05;;
61785;SDS011;47692;53.714;11.372;2022-11-10T05:46:20;16.42;;;6.80;;
61785;SDS011;47692;53.714;11.372;2022-11-10T05:48:45;20.75;;;7.47;;
61785;SDS011;47692;53.714;11.372;2022-11-10T05:51:11;14.63;;;6.60;;
61785;SDS011;47692;53.714;11.372;2022-11-10T05:53:36;19.73;;;7.55;;
61785;SDS011;47692;53.714;11.372;2022-11-10T05:56:01;11.90;;;6.82;;
61785;SDS011;47692;53.714;11.372;2022-11-10T05:58:27;15.45;;;7.63;;
61785;SDS011;47692;53.714;11.372;2022-11-10T06:00:52;20.42;;;8.00;;
61785;SDS011;47692;53.714;11.372;2022-11-10T06:03:18;20.75;;;9.23;;
61785;SDS011;47692;53.714;11.372;2022-11-10T06:05:44;17.58;;;8.60;;
61785;SDS011;47692;53.714;11.372;2022-11-10T06:08:10;17.15;;;7.47;;
61785;SDS011;47692;53.714;11.372;2022-11-10T06:10:36;21.25;;;9.38;;
61785;SDS011;47692;53.714;11.372;2022-11-10T06:13:03;19.70;;;8.07;;
61785;SDS011;47692;53.714;11.372;2022-11-10T06:15:28;19.10;;;8.20;;
61785;SDS011;47692;53.714;11.372;2022-11-10T06:17:54;17.92;;;7.70;;
61785;SDS011;47692;53.714;11.372;2022-11-10T06:20:20;20.45;;;8.70;;
61785;SDS011;47692;53.714;11.372;2022-11-10T06:25:41;16.48;;;8.25;;
61785;SDS011;47692;53.714;11.372;2022-11-10T06:28:06;14.18;;;7.70;;
61785;SDS011;47692;53.714;11.372;2022-11-10T06:30:34;17.63;;;7.75;;
61785;SDS011;47692;53.714;11.372;2022-11-10T06:33:01;16.67;;;7.78;;
61785;SDS011;47692;53.714;11.372;2022-11-10T06:35:26;16.63;;;7.78;;
61785;SDS011;47692;53.714;11.372;2022-11-10T06:37:56;18.20;;;7.95;;
61785;SDS011;47692;53.714;11.372;2022-11-10T06:40:29;14.93;;;8.32;;
61785;SDS011;47692;53.714;11.372;2022-11-10T06:42:55;16.63;;;8.05;;
61785;SDS011;47692;53.714;11.372;2022-11-10T06:45:21;20.58;;;7.57;;
61785;SDS011;47692;53.714;11.372;2022-11-10T06:47:46;21.80;;;7.63;;
61785;SDS011;47692;53.714;11.372;2022-11-10T06:50:11;12.95;;;7.78;;
61785;SDS011;47692;53.714;11.372;2022-11-10T06:52:37;20.67;;;8.57;;
61785;SDS011;47692;53.714;11.372;2022-11-10T06:55:02;24.65;;;7.55;;
61785;SDS011;47692;53.714;11.372;2022-11-10T06:57:28;16.95;;;7.85;;
61785;SDS011;47692;53.714;11.372;2022-11-10T06:59:53;20.58;;;7.55;;
61785;SDS011;47692;53.714;11.372;2022-11-10T07:02:19;19.90;;;7.30;;
61785;SDS011;47692;53.714;11.372;2022-11-10T07:04:44;19.20;;;8.07;;
61785;SDS011;47692;53.714;11.372;2022-11-10T07:07:10;14.98;;;6.95;;
61785;SDS011;47692;53.714;11.372;2022-11-10T07:09:35;18.30;;;7.18;;
61785;SDS011;47692;53.714;11.372;2022-11-10T07:12:01;23.52;;;7.78;;
61785;SDS011;47692;53.714;11.372;2022-11-10T07:14:27;19.33;;;7.53;;
61785;SDS011;47692;53.714;11.372;2022-11-10T07:16:53;22.45;;;8.43;;
61785;SDS011;47692;53.714;11.372;2022-11-10T07:19:18;19.73;;;8.10;;
61785;SDS011;47692;53.714;11.372;2022-11-10T07:21:43;17.10;;;8.30;;
61785;SDS011;47692;53.714;11.372;2022-11-10T07:24:09;23.52;;;8.50;;
61785;SDS011;47692;53.714;11.372;2022-11-10T07:26:34;17.73;;;8.10;;
61785;SDS011;47692;53.714;11.372;2022-11-10T07:28:59;19.42;;;8.18;;
61785;SDS011;47692;53.714;11.372;2022-11-10T07:31:25;28.05;;;9.25;;
61785;SDS011;47692;53.714;11.372;2022-11-10T07:33:50;22.13;;;9.13;;
61785;SDS011;47692;53.714;11.372;2022-11-10T07:36:16;18.40;;;8.20;;
61785;SDS011;47692;53.714;11.372;2022-11-10T07:38:42;19.30;;;8.35;;
61785;SDS011;47692;53.714;11.372;2022-11-10T07:41:07;20.42;;;8.57;;
61785;SDS011;47692;53.714;11.372;2022-11-10T07:43:32;21.52;;;9.00;;
61785;SDS011;47692;53.714;11.372;2022-11-10T07:45:58;23.27;;;9.00;;
61785;SDS011;47692;53.714;11.372;2022-11-10T07:48:24;22.52;;;8.90;;
61785;SDS011;47692;53.714;11.372;2022-11-10T07:50:50;18.38;;;9.48;;
61785;SDS011;47692;53.714;11.372;2022-11-10T07:53:16;20.40;;;9.93;;
61785;SDS011;47692;53.714;11.372;2022-11-10T07:55:44;19.33;;;9.07;;
61785;SDS011;47692;53.714;11.372;2022-11-10T07:58:10;23.58;;;8.88;;
61785;SDS011;47692;53.714;11.372;2022-11-10T08:00:37;16.73;;;8.57;;
61785;SDS011;47692;53.714;11.372;2022-11-10T08:05:29;19.65;;;8.35;;
61785;SDS011;47692;53.714;11.372;2022-11-10T08:07:55;19.63;;;8.98;;
61785;SDS011;47692;53.714;11.372;2022-11-10T08:10:20;19.38;;;8.98;;
61785;SDS011;47692;53.714;11.372;2022-11-10T08:12:51;16.67;;;8.50;;
61785;SDS011;47692;53.714;11.372;2022-11-10T08:17:43;17.63;;;7.70;;
61785;SDS011;47692;53.714;11.372;2022-11-10T08:20:08;18.80;;;8.98;;
61785;SDS011;47692;53.714;11.372;2022-11-10T08:22:33;20.48;;;8.70;;
61785;SDS011;47692;53.714;11.372;2022-11-10T08:24:59;18.35;;;8.55;;
61785;SDS011;47692;53.714;11.372;2022-11-10T08:27:24;20.83;;;8.80;;
61785;SDS011;47692;53.714;11.372;2022-11-10T08:29:49;20.60;;;9.23;;
61785;SDS011;47692;53.714;11.372;2022-11-10T08:32:15;15.00;;;7.95;;
61785;SDS011;47692;53.714;11.372;2022-11-10T08:34:40;19.63;;;8.43;;
61785;SDS011;47692;53.714;11.372;2022-11-10T08:37:05;18.15;;;8.13;;
61785;SDS011;47692;53.714;11.372;2022-11-10T08:39:31;17.00;;;8.25;;
61785;SDS011;47692;53.714;11.372;2022-11-10T08:41:57;18.90;;;8.25;;
61785;SDS011;47692;53.714;11.372;2022-11-10T08:44:22;16.80;;;8.35;;
61785;SDS011;47692;53.714;11.372;2022-11-10T08:46:47;21.02;;;8.75;;
61785;SDS011;47692;53.714;11.372;2022-11-10T08:49:13;18.60;;;8.30;;
61785;SDS011;47692;53.714;11.372;2022-11-10T08:51:38;19.92;;;9.00;;
61785;SDS011;47692;53.714;11.372;2022-11-10T08:54:03;17.30;;;8.40;;
61785;SDS011;47692;53.714;11.372;2022-11-10T08:56:28;18.52;;;8.57;;
61785;SDS011;47692;53.714;11.372;2022-11-10T08:58:54;20.92;;;7.55;;
61785;SDS011;47692;53.714;11.372;2022-11-10T09:01:19;14.93;;;7.97;;
61785;SDS011;47692;53.714;11.372;2022-11-10T09:03:45;12.25;;;6.30;;
61785;SDS011;47692;53.714;11.372;2022-11-10T09:06:10;20.63;;;7.75;;
61785;SDS011;47692;53.714;11.372;2022-11-10T09:08:35;18.20;;;7.75;;
61785;SDS011;47692;53.714;11.372;2022-11-10T09:11:02;15.02;;;7.07;;
61785;SDS011;47692;53.714;11.372;2022-11-10T09:13:30;17.00;;;6.78;;
61785;SDS011;47692;53.714;11.372;2022-11-10T09:15:59;18.30;;;6.68;;
61785;SDS011;47692;53.714;11.372;2022-11-10T09:18:25;15.82;;;7.45;;
61785;SDS011;47692;53.714;11.372;2022-11-10T09:20:51;17.10;;;6.63;;
61785;SDS011;47692;53.714;11.372;2022-11-10T09:23:17;14.45;;;6.07;;
61785;SDS011;47692;53.714;11.372;2022-11-10T09:25:47;15.85;;;6.65;;
61785;SDS011;47692;53.714;11.372;2022-11-10T09:28:14;12.40;;;6.78;;
61785;SDS011;47692;53.714;11.372;2022-11-10T09:30:40;19.95;;;6.95;;
61785;SDS011;47692;53.714;11.372;2022-11-10T09:33:07;15.05;;;6.70;;
61785;SDS011;47692;53.714;11.372;2022-11-10T09:35:32;15.85;;;6.32;;
61785;SDS011;47692;53.714;11.372;2022-11-10T09:37:58;15.07;;;6.07;;
61785;SDS011;47692;53.714;11.372;2022-11-10T09:43:08;15.65;;;6.97;;
61785;SDS011;47692;53.714;11.372;2022-11-10T09:45:40;19.05;;;7.47;;
61785;SDS011;47692;53.714;11.372;2022-11-10T09:48:24;15.70;;;6.30;;
61785;SDS011;47692;53.714;11.372;2022-11-10T09:51:00;17.70;;;6.43;;
61785;SDS011;47692;53.714;11.372;2022-11-10T09:53:33;14.43;;;5.88;;
61785;SDS011;47692;53.714;11.372;2022-11-10T09:56:02;14.18;;;5.65;;
61785;SDS011;47692;53.714;11.372;2022-11-10T09:58:37;20.77;;;6.93;;
61785;SDS011;47692;53.714;11.372;2022-11-10T10:01:17;16.27;;;6.00;;
61785;SDS011;47692;53.714;11.372;2022-11-10T10:07:08;17.15;;;5.47;;
61785;SDS011;47692;53.714;11.372;2022-11-10T10:12:18;13.02;;;6.15;;
61785;SDS011;47692;53.714;11.372;2022-11-10T10:25:22;14.07;;;5.80;;
61785;SDS011;47692;53.714;11.372;2022-11-10T10:27:51;15.70;;;6.68;;
61785;SDS011;47692;53.714;11.372;2022-11-10T10:30:43;14.15;;;5.40;;
61785;SDS011;47692;53.714;11.372;2022-11-10T10:33:19;17.50;;;6.20;;
61785;SDS011;47692;53.714;11.372;2022-11-10T10:35:47;15.95;;;6.00;;
61785;SDS011;47692;53.714;11.372;2022-11-10T10:41:32;18.60;;;5.63;;
61785;SDS011;47692;53.714;11.372;2022-11-10T10:43:59;12.93;;;6.30;;
61785;SDS011;47692;53.714;11.372;2022-11-10T10:46:26;15.63;;;6.30;;
61785;SDS011;47692;53.714;11.372;2022-11-10T10:49:06;16.55;;;6.22;;
61785;SDS011;47692;53.714;11.372;2022-11-10T10:51:38;11.57;;;5.85;;
61785;SDS011;47692;53.714;11.372;2022-11-10T10:54:07;16.02;;;6.22;;
61785;SDS011;47692;53.714;11.372;2022-11-10T10:57:14;17.85;;;6.63;;
61785;SDS011;47692;53.714;11.372;2022-11-10T10:59:48;20.02;;;6.13;;
61785;SDS011;47692;53.714;11.372;2022-11-10T11:02:23;14.80;;;5.82;;
61785;SDS011;47692;53.714;11.372;2022-11-10T11:07:55;16.17;;;6.20;;
61785;SDS011;47692;53.714;11.372;2022-11-10T11:10:28;13.27;;;5.72;;
61785;SDS011;47692;53.714;11.372;2022-11-10T11:15:38;16.38;;;5.78;;
61785;SDS011;47692;53.714;11.372;2022-11-10T11:18:10;19.98;;;6.32;;
61785;SDS011;47692;53.714;11.372;2022-11-10T11:21:00;15.93;;;5.63;;
61785;SDS011;47692;53.714;11.372;2022-11-10T11:23:44;15.90;;;6.25;;
61785;SDS011;47692;53.714;11.372;2022-11-10T11:26:12;16.25;;;5.80;;
61785;SDS011;47692;53.714;11.372;2022-11-10T11:31:49;14.75;;;5.95;;
61785;SDS011;47692;53.714;11.372;2022-11-10T11:37:27;13.50;;;5.38;;
61785;SDS011;47692;53.714;11.372;2022-11-10T11:45:49;13.77;;;5.80;;
61785;SDS011;47692;53.714;11.372;2022-11-10T11:48:59;17.00;;;6.00;;
61785;SDS011;47692;53.714;11.372;2022-11-10T11:51:46;12.85;;;5.35;;
61785;SDS011;47692;53.714;11.372;2022-11-10T11:57:33;13.77;;;5.05;;
61785;SDS011;47692;53.714;11.372;2022-11-10T12:00:13;16.27;;;5.57;;
61785;SDS011;47692;53.714;11.372;2022-11-10T12:07:53;17.88;;;5.78;;
61785;SDS011;47692;53.714;11.372;2022-11-10T12:10:45;12.15;;;4.75;;
61785;SDS011;47692;53.714;11.372;2022-11-10T12:25:44;11.38;;;4.30;;
61785;SDS011;47692;53.714;11.372;2022-11-10T12:28:07;12.43;;;5.25;;
61785;SDS011;47692;53.714;11.372;2022-11-10T12:30:38;16.77;;;5.18;;
61785;SDS011;47692;53.714;11.372;2022-11-10T12:33:15;12.77;;;4.38;;
61785;SDS011;47692;53.714;11.372;2022-11-10T12:36:00;16.80;;;4.35;;
61785;SDS011;47692;53.714;11.372;2022-11-10T12:38:51;13.82;;;5.10;;
61785;SDS011;47692;53.714;11.372;2022-11-10T12:41:21;14.35;;;4.97;;
61785;SDS011;47692;53.714;11.372;2022-11-10T12:43:55;16.17;;;4.43;;
61785;SDS011;47692;53.714;11.372;2022-11-10T12:46:26;10.55;;;4.55;;
61785;SDS011;47692;53.714;11.372;2022-11-10T12:48:56;11.95;;;4.50;;
61785;SDS011;47692;53.714;11.372;2022-11-10T12:54:27;10.13;;;4.00;;
61785;SDS011;47692;53.714;11.372;2022-11-10T12:56:54;11.93;;;4.68;;
61785;SDS011;47692;53.714;11.372;2022-11-10T13:01:51;10.98;;;4.13;;
61785;SDS011;47692;53.714;11.372;2022-11-10T13:04:23;15.60;;;4.60;;
61785;SDS011;47692;53.714;11.372;2022-11-10T13:06:52;10.40;;;4.80;;
61785;SDS011;47692;53.714;11.372;2022-11-10T13:09:25;11.05;;;4.18;;
61785;SDS011;47692;53.714;11.372;2022-11-10T13:12:04;14.02;;;4.28;;
61785;SDS011;47692;53.714;11.372;2022-11-10T13:14:39;17.85;;;5.22;;
61785;SDS011;47692;53.714;11.372;2022-11-10T13:17:05;15.55;;;4.55;;
61785;SDS011;47692;53.714;11.372;2022-11-10T13:22:08;14.07;;;4.18;;
61785;SDS011;47692;53.714;11.372;2022-11-10T13:24:37;12.48;;;4.22;;
61785;SDS011;47692;53.714;11.372;2022-11-10T13:27:09;12.85;;;4.30;;
61785;SDS011;47692;53.714;11.372;2022-11-10T13:34:43;10.63;;;4.40;;
61785;SDS011;47692;53.714;11.372;2022-11-10T13:40:13;15.50;;;4.47;;
61785;SDS011;47692;53.714;11.372;2022-11-10T13:43:27;11.77;;;4.50;;
61785;SDS011;47692;53.714;11.372;2022-11-10T13:45:28;15.77;;;4.68;;
61785;SDS011;47692;53.714;11.372;2022-11-10T13:53:12;11.95;;;4.30;;
61785;SDS011;47692;53.714;11.372;2022-11-10T14:04:57;12.00;;;4.20;;
61785;SDS011;47692;53.714;11.372;2022-11-10T14:07:23;13.10;;;4.38;;
61785;SDS011;47692;53.714;11.372;2022-11-10T14:09:51;14.00;;;3.88;;
61785;SDS011;47692;53.714;11.372;2022-11-10T14:12:23;12.27;;;4.07;;
61785;SDS011;47692;53.714;11.372;2022-11-10T14:14:57;11.07;;;4.20;;
61785;SDS011;47692;53.714;11.372;2022-11-10T14:17:38;14.57;;;4.40;;
61785;SDS011;47692;53.714;11.372;2022-11-10T14:20:23;13.52;;;4.35;;
61785;SDS011;47692;53.714;11.372;2022-11-10T14:22:53;10.65;;;3.95;;
61785;SDS011;47692;53.714;11.372;2022-11-10T14:30:51;16.52;;;4.55;;
61785;SDS011;47692;53.714;11.372;2022-11-10T14:33:18;15.70;;;4.32;;
61785;SDS011;47692;53.714;11.372;2022-11-10T14:38:19;11.05;;;4.60;;
61785;SDS011;47692;53.714;11.372;2022-11-10T14:40:46;13.32;;;3.97;;
61785;SDS011;47692;53.714;11.372;2022-11-10T14:43:26;11.73;;;3.60;;
61785;SDS011;47692;53.714;11.372;2022-11-10T14:45:59;12.95;;;3.78;;
61785;SDS011;47692;53.714;11.372;2022-11-10T14:48:28;11.50;;;4.18;;
61785;SDS011;47692;53.714;11.372;2022-11-10T14:51:00;13.13;;;4.60;;
61785;SDS011;47692;53.714;11.372;2022-11-10T14:55:57;15.60;;;5.03;;
61785;SDS011;47692;53.714;11.372;2022-11-10T14:58:26;17.65;;;4.47;;
61785;SDS011;47692;53.714;11.372;2022-11-10T15:00:59;13.23;;;4.00;;
61785;SDS011;47692;53.714;11.372;2022-11-10T15:03:47;12.45;;;3.90;;
61785;SDS011;47692;53.714;11.372;2022-11-10T15:06:12;10.27;;;3.90;;
61785;SDS011;47692;53.714;11.372;2022-11-10T15:08:38;9.55;;;3.72;;
61785;SDS011;47692;53.714;11.372;2022-11-10T15:11:04;10.05;;;4.22;;
61785;SDS011;47692;53.714;11.372;2022-11-10T15:18:50;12.18;;;4.13;;
61785;SDS011;47692;53.714;11.372;2022-11-10T15:21:17;9.15;;;4.10;;
61785;SDS011;47692;53.714;11.372;2022-11-10T15:23:45;12.88;;;5.32;;
61785;SDS011;47692;53.714;11.372;2022-11-10T15:26:20;10.32;;;3.80;;
61785;SDS011;47692;53.714;11.372;2022-11-10T15:28:48;11.23;;;3.60;;
61785;SDS011;47692;53.714;11.372;2022-11-10T15:31:22;10.57;;;4.32;;
61785;SDS011;47692;53.714;11.372;2022-11-10T15:33:50;15.93;;;3.67;;
61785;SDS011;47692;53.714;11.372;2022-11-10T15:41:43;9.20;;;3.08;;
61785;SDS011;47692;53.714;11.372;2022-11-10T15:44:22;11.48;;;3.35;;
61785;SDS011;47692;53.714;11.372;2022-11-10T15:46:53;12.45;;;3.33;;
61785;SDS011;47692;53.714;11.372;2022-11-10T15:49:21;10.57;;;3.20;;
61785;SDS011;47692;53.714;11.372;2022-11-10T15:51:50;12.15;;;3.03;;
61785;SDS011;47692;53.714;11.372;2022-11-10T15:54:17;11.40;;;3.50;;
61785;SDS011;47692;53.714;11.372;2022-11-10T15:56:45;8.60;;;2.92;;
61785;SDS011;47692;53.714;11.372;2022-11-10T15:59:11;6.53;;;2.80;;
61785;SDS011;47692;53.714;11.372;2022-11-10T16:01:36;9.23;;;3.10;;
61785;SDS011;47692;53.714;11.372;2022-11-10T16:04:02;12.05;;;3.20;;
61785;SDS011;47692;53.714;11.372;2022-11-10T16:06:27;8.70;;;2.83;;
61785;SDS011;47692;53.714;11.372;2022-11-10T16:08:54;11.27;;;2.95;;
61785;SDS011;47692;53.714;11.372;2022-11-10T16:11:20;7.93;;;3.20;;
61785;SDS011;47692;53.714;11.372;2022-11-10T16:13:47;11.73;;;2.95;;
61785;SDS011;47692;53.714;11.372;2022-11-10T16:16:13;11.68;;;2.97;;
61785;SDS011;47692;53.714;11.372;2022-11-10T16:18:41;10.68;;;2.45;;
61785;SDS011;47692;53.714;11.372;2022-11-10T16:21:11;8.15;;;2.50;;
61785;SDS011;47692;53.714;11.372;2022-11-10T16:23:38;11.23;;;3.17;;
61785;SDS011;47692;53.714;11.372;2022-11-10T16:26:04;10.32;;;3.35;;
61785;SDS011;47692;53.714;11.372;2022-11-10T16:28:31;7.47;;;2.47;;
61785;SDS011;47692;53.714;11.372;2022-11-10T16:30:57;7.63;;;3.13;;
61785;SDS011;47692;53.714;11.372;2022-11-10T16:33:23;8.52;;;2.25;;